TrOMS Arcturus — LKNL — position and weather

sailwx.info

Track history (hours):
 
Tides and Currents Weather Stations Pressure Air Temp Water Temp Dewpoint Dewpoint Depression Visibility Wind Speed Wind Dir Waves Ship Positions

TrOMS Arcturus

Last reported at 2018-Feb-19 17:59 UTC. Time now 2018-Feb-19 18:19 UTC.
Position N 63°06' E 007°47'.

Length 95 m; draft 5.3 m.

Type: Cargo ship. MMSI: 257131000.

Date/timePositionNaut miles runAvg speedWind from/ knotsBaromVisibWave heightAir tempDewpointWater temp
2018-Feb-19 17:59N 63°06' E 007°47'0 0.0
2018-Feb-19 17:29N 63°06' E 007°47'0 0.0
2018-Feb-19 16:59N 63°06' E 007°47'0 0.0
2018-Feb-19 16:29N 63°06' E 007°47'0 0.0
2018-Feb-19 15:59N 63°06' E 007°47'0 0.3
2018-Feb-19 15:30N 63°06' E 007°47'3 5.3
2018-Feb-19 15:00N 63°06' E 007°41'3 6.0
2018-Feb-19 14:30N 63°09' E 007°43'0 0.3
2018-Feb-19 14:00N 63°09' E 007°44'0 0.2
2018-Feb-19 13:30N 63°09' E 007°43'0 0.1
2018-Feb-19 13:00N 63°09' E 007°43'0 0.1
2018-Feb-19 12:30N 63°09' E 007°43'0 0.1
2018-Feb-19 12:00N 63°09' E 007°43'3 6.0
2018-Feb-19 11:30N 63°12' E 007°46'4 7.4
2018-Feb-19 11:00N 63°14' E 007°40'4 7.5
2018-Feb-19 10:30N 63°17' E 007°35'4 8.3
2018-Feb-19 10:00N 63°21' E 007°34'4 8.2
2018-Feb-19 09:30N 63°25' E 007°34'4 8.1
2018-Feb-19 09:00N 63°29' E 007°34'4 8.1
2018-Feb-19 08:30N 63°33' E 007°34'4 7.6
2018-Feb-19 08:00N 63°37' E 007°33'4 8.6
2018-Feb-19 07:30N 63°42' E 007°32'1 1.4
2018-Feb-19 07:00N 63°42' E 007°33'6 0.2
2018-Feb-17 14:37N 63°48' E 007°40'110.5
2018-Feb-17 14:30N 63°46' E 007°40'510.8
2018-Feb-17 14:00N 63°41' E 007°40'510.5
2018-Feb-17 13:30N 63°36' E 007°39'510.9
2018-Feb-17 13:00N 63°30' E 007°38'611.3
2018-Feb-17 12:30N 63°25' E 007°38'611.3
2018-Feb-17 12:00N 63°19' E 007°37'5 9.5
2018-Feb-17 11:30N 63°15' E 007°41'4 8.5
2018-Feb-17 11:00N 63°10' E 007°44'5 9.1
2018-Feb-17 10:30N 63°06' E 007°43'2 4.2
2018-Feb-17 10:00N 63°06' E 007°47'0 0.0
2018-Feb-17 09:29N 63°06' E 007°47'0 0.0
2018-Feb-17 08:59N 63°06' E 007°47'0 0.0
2018-Feb-17 08:29N 63°06' E 007°47'0 0.0
2018-Feb-17 07:59N 63°06' E 007°47'0 0.0
2018-Feb-17 07:29N 63°06' E 007°47'0 0.0
2018-Feb-17 06:59N 63°06' E 007°47'0 0.0
2018-Feb-17 06:29N 63°06' E 007°47'0 0.0
2018-Feb-17 05:59N 63°06' E 007°47'0 0.0
2018-Feb-17 05:29N 63°06' E 007°47'0 0.0
2018-Feb-17 04:59N 63°06' E 007°47'0 0.0
2018-Feb-17 04:29N 63°06' E 007°47'0 0.0
2018-Feb-17 03:59N 63°06' E 007°47'0 0.0
2018-Feb-17 03:29N 63°06' E 007°47'0 0.0
2018-Feb-17 02:59N 63°06' E 007°47'0 0.0
2018-Feb-17 02:29N 63°06' E 007°47'0 0.0
2018-Feb-17 01:59N 63°06' E 007°47'0 0.0
2018-Feb-17 01:29N 63°06' E 007°47'0 0.0
2018-Feb-17 00:59N 63°06' E 007°47'0 0.0
2018-Feb-17 00:29N 63°06' E 007°47'0 0.0
2018-Feb-16 23:59N 63°06' E 007°47'0 0.0
2018-Feb-16 23:29N 63°06' E 007°47'0 0.0
2018-Feb-16 22:59N 63°06' E 007°47'0 0.0
2018-Feb-16 22:29N 63°06' E 007°47'0 0.0
2018-Feb-16 21:59N 63°06' E 007°47'0 0.0
2018-Feb-16 21:29N 63°06' E 007°47'0 0.0
2018-Feb-16 20:59N 63°06' E 007°47'0 0.0
2018-Feb-16 20:29N 63°06' E 007°47'0 0.0
2018-Feb-16 19:59N 63°06' E 007°47'0 0.1
2018-Feb-16 19:30N 63°06' E 007°47'0 0.6
2018-Feb-16 19:01N 63°06' E 007°46'0 0.4
2018-Feb-16 18:28N 63°06' E 007°46'0 0.0
2018-Feb-16 17:58N 63°06' E 007°46'0 0.0
2018-Feb-16 17:28N 63°06' E 007°46'0 0.0
2018-Feb-16 16:58N 63°06' E 007°46'0 0.0
2018-Feb-16 16:28N 63°06' E 007°46'0 0.0
2018-Feb-16 15:58N 63°06' E 007°46'0 0.0
2018-Feb-16 15:31N 63°06' E 007°46'0 0.0
2018-Feb-16 15:01N 63°06' E 007°46'0 0.0
2018-Feb-16 14:31N 63°06' E 007°46'0 0.0
2018-Feb-16 13:58N 63°06' E 007°46'0 0.0
2018-Feb-16 13:28N 63°06' E 007°46'0 0.0
2018-Feb-16 12:58N 63°06' E 007°46'0 0.0
2018-Feb-16 12:28N 63°06' E 007°46'0 0.0
2018-Feb-16 11:58N 63°06' E 007°46'0 0.0
2018-Feb-16 11:28N 63°06' E 007°46'0 0.0
2018-Feb-16 10:58N 63°06' E 007°46'0 0.0
2018-Feb-16 10:28N 63°06' E 007°46'0 0.0
2018-Feb-16 10:01N 63°06' E 007°46'0 0.0
2018-Feb-16 09:28N 63°06' E 007°46'0 0.0
2018-Feb-16 09:00N 63°06' E 007°46'0 0.0
2018-Feb-16 08:28N 63°06' E 007°46'0 0.0
2018-Feb-16 08:00N 63°06' E 007°46'0 0.0
2018-Feb-16 07:31N 63°06' E 007°46'0 0.0
2018-Feb-16 07:01N 63°06' E 007°46'0 0.0
2018-Feb-16 06:31N 63°06' E 007°46'0 0.0
2018-Feb-16 06:01N 63°06' E 007°46'0 0.0
2018-Feb-16 05:31N 63°06' E 007°46'0 0.0
2018-Feb-16 05:00N 63°06' E 007°46'0 0.0
2018-Feb-16 04:27N 63°06' E 007°46'0 0.0
2018-Feb-16 03:58N 63°06' E 007°46'0 0.0
2018-Feb-16 03:28N 63°06' E 007°46'0 0.0
2018-Feb-16 03:01N 63°06' E 007°46'0 0.0
2018-Feb-16 02:28N 63°06' E 007°46'0 0.0
2018-Feb-16 02:01N 63°06' E 007°46'0 0.0
2018-Feb-16 01:31N 63°06' E 007°46'0 0.0
2018-Feb-16 00:57N 63°06' E 007°46'0 0.0
2018-Feb-16 00:31N 63°06' E 007°46'0 0.0
2018-Feb-16 00:00N 63°06' E 007°46'0 0.0
2018-Feb-15 23:30N 63°06' E 007°46'0 0.0
2018-Feb-15 23:00N 63°06' E 007°46'0 0.0
2018-Feb-15 22:31N 63°06' E 007°46'0 0.0
2018-Feb-15 22:00N 63°06' E 007°46'0 0.0
2018-Feb-15 21:27N 63°06' E 007°46'0 0.0
2018-Feb-15 21:00N 63°06' E 007°46'0 0.0
2018-Feb-15 20:31N 63°06' E 007°46'0 0.0
2018-Feb-15 20:00N 63°06' E 007°46'0 0.0
2018-Feb-15 19:30N 63°06' E 007°46'0 0.0
2018-Feb-15 19:00N 63°06' E 007°46'0 0.0
2018-Feb-15 18:30N 63°06' E 007°46'0 0.0
2018-Feb-15 18:00N 63°06' E 007°46'0 0.0
2018-Feb-15 17:30N 63°06' E 007°46'0 0.3
2018-Feb-15 17:01N 63°06' E 007°46'1 1.3
2018-Feb-15 16:30N 63°06' E 007°48'0 0.0
2018-Feb-15 16:00N 63°06' E 007°48'0 0.0
2018-Feb-15 15:30N 63°06' E 007°48'0 0.0
2018-Feb-15 15:00N 63°06' E 007°48'0 0.0
2018-Feb-15 14:30N 63°06' E 007°48'0 0.0
2018-Feb-15 14:00N 63°06' E 007°48'0 0.0
2018-Feb-15 13:30N 63°06' E 007°48'0 0.1
2018-Feb-15 13:00N 63°06' E 007°48'0 0.5
2018-Feb-15 12:30N 63°06' E 007°47'0 0.0
2018-Feb-15 12:00N 63°06' E 007°47'0 0.0
2018-Feb-15 11:30N 63°06' E 007°47'0 0.0
2018-Feb-15 11:00N 63°06' E 007°47'0 0.0
2018-Feb-15 10:30N 63°06' E 007°47'0 0.0
2018-Feb-15 10:00N 63°06' E 007°47'0 0.0
2018-Feb-15 09:30N 63°06' E 007°47'0 0.0
2018-Feb-15 09:00N 63°06' E 007°47'0 0.0
2018-Feb-15 08:30N 63°06' E 007°47'0 0.0
2018-Feb-15 08:00N 63°06' E 007°47'0 0.0
2018-Feb-15 07:30N 63°06' E 007°47'0 0.0
2018-Feb-15 07:00N 63°06' E 007°47'2 3.6
2018-Feb-15 06:30N 63°06' E 007°43'4 7.1
2018-Feb-15 06:00N 63°09' E 007°42'4 7.7
2018-Feb-15 05:30N 63°13' E 007°44'5 9.1
2018-Feb-15 05:00N 63°15' E 007°36'4 8.3
2018-Feb-15 04:30N 63°19' E 007°35'4 8.0
2018-Feb-15 04:00N 63°23' E 007°35'4 8.0
2018-Feb-15 03:30N 63°27' E 007°36'4 8.3
2018-Feb-15 03:00N 63°32' E 007°37'4 8.4
2018-Feb-15 02:30N 63°36' E 007°38'4 8.3
2018-Feb-15 02:00N 63°40' E 007°39'4 8.3
2018-Feb-15 01:30N 63°44' E 007°41'4 8.4
2018-Feb-15 01:00N 63°48' E 007°42'11 0.4
2018-Feb-13 23:52N 63°40' E 007°26'411.1
2018-Feb-13 23:30N 63°36' E 007°29'511.0
2018-Feb-13 23:00N 63°30' E 007°31'611.0
2018-Feb-13 22:30N 63°25' E 007°34'511.1
2018-Feb-13 22:00N 63°19' E 007°36'510.1
2018-Feb-13 21:30N 63°15' E 007°41'4 8.5
2018-Feb-13 21:00N 63°11' E 007°44'5 9.6
2018-Feb-13 20:30N 63°06' E 007°42'2 3.9
2018-Feb-13 20:00N 63°06' E 007°46'0 0.0
2018-Feb-13 19:28N 63°06' E 007°46'0 0.0
2018-Feb-13 18:58N 63°06' E 007°46'0 0.0
2018-Feb-13 18:28N 63°06' E 007°46'0 0.0
2018-Feb-13 17:58N 63°06' E 007°46'0 0.0
2018-Feb-13 17:28N 63°06' E 007°46'0 0.0
2018-Feb-13 16:58N 63°06' E 007°46'0 0.0
2018-Feb-13 16:28N 63°06' E 007°46'0 0.0
2018-Feb-13 15:58N 63°06' E 007°46'0 0.0
2018-Feb-13 15:28N 63°06' E 007°46'0 0.0
2018-Feb-13 14:58N 63°06' E 007°46'0 0.0
2018-Feb-13 14:28N 63°06' E 007°46'0 0.0
2018-Feb-13 13:58N 63°06' E 007°46'0 0.0
2018-Feb-13 13:28N 63°06' E 007°46'0 0.0
2018-Feb-13 12:58N 63°06' E 007°46'0 0.0
2018-Feb-13 12:28N 63°06' E 007°46'0 0.0
2018-Feb-13 11:58N 63°06' E 007°46'0 0.0
2018-Feb-13 11:28N 63°06' E 007°46'0 0.0
2018-Feb-13 10:58N 63°06' E 007°46'0 0.0
2018-Feb-13 10:28N 63°06' E 007°46'0 0.0
2018-Feb-13 09:58N 63°06' E 007°46'0 0.0
2018-Feb-13 09:28N 63°06' E 007°46'0 0.0
2018-Feb-13 08:58N 63°06' E 007°46'0 0.0
2018-Feb-13 08:28N 63°06' E 007°46'0 0.0
2018-Feb-13 07:58N 63°06' E 007°46'0 0.0
2018-Feb-13 07:28N 63°06' E 007°46'0 0.0
2018-Feb-13 06:58N 63°06' E 007°46'0 0.0
2018-Feb-13 06:28N 63°06' E 007°46'0 0.0
2018-Feb-13 05:58N 63°06' E 007°46'0 0.0
2018-Feb-13 05:28N 63°06' E 007°46'0 0.0
2018-Feb-13 04:58N 63°06' E 007°46'0 0.0
2018-Feb-13 04:28N 63°06' E 007°46'0 0.0
2018-Feb-13 03:58N 63°06' E 007°46'0 0.0
2018-Feb-13 03:28N 63°06' E 007°46'0 0.0
2018-Feb-13 02:58N 63°06' E 007°46'0 0.0
2018-Feb-13 02:25N 63°06' E 007°46'0 0.0
2018-Feb-13 01:58N 63°06' E 007°46'0 0.0
2018-Feb-13 01:28N 63°06' E 007°46'0 0.0
2018-Feb-13 00:58N 63°06' E 007°46'0 0.0
2018-Feb-13 00:28N 63°06' E 007°46'0 0.0
2018-Feb-12 23:58N 63°06' E 007°46'0 0.0
2018-Feb-12 23:28N 63°06' E 007°46'0 0.0
2018-Feb-12 22:58N 63°06' E 007°46'0 0.0
2018-Feb-12 22:28N 63°06' E 007°46'0 0.0
2018-Feb-12 21:58N 63°06' E 007°46'0 0.0
2018-Feb-12 21:28N 63°06' E 007°46'0 0.0
2018-Feb-12 20:58N 63°06' E 007°46'0 0.0
2018-Feb-12 20:28N 63°06' E 007°46'0 0.0
2018-Feb-12 19:58N 63°06' E 007°46'0 0.0
2018-Feb-12 19:28N 63°06' E 007°46'0 0.0
2018-Feb-12 18:58N 63°06' E 007°46'0 0.0
2018-Feb-12 18:28N 63°06' E 007°46'0 0.0
2018-Feb-12 17:58N 63°06' E 007°46'0 0.0
2018-Feb-12 17:28N 63°06' E 007°46'0 0.0
2018-Feb-12 16:58N 63°06' E 007°46'0 0.0
2018-Feb-12 16:28N 63°06' E 007°46'0 0.0
2018-Feb-12 15:58N 63°06' E 007°46'0 0.0
2018-Feb-12 15:28N 63°06' E 007°46'0 0.0
2018-Feb-12 14:58N 63°06' E 007°46'0 0.0
2018-Feb-12 14:28N 63°06' E 007°46'0 0.0
2018-Feb-12 13:58N 63°06' E 007°46'0 0.0
2018-Feb-12 13:28N 63°06' E 007°46'0 0.0
2018-Feb-12 12:58N 63°06' E 007°46'0 0.0
2018-Feb-12 12:28N 63°06' E 007°46'0 0.0
2018-Feb-12 11:58N 63°06' E 007°46'0 0.0
2018-Feb-12 11:28N 63°06' E 007°46'0 0.0
2018-Feb-12 10:58N 63°06' E 007°46'0 0.0
2018-Feb-12 10:28N 63°06' E 007°46'0 0.0
2018-Feb-12 09:58N 63°06' E 007°46'0 0.0
2018-Feb-12 09:28N 63°06' E 007°46'0 0.0
2018-Feb-12 08:58N 63°06' E 007°46'0 0.0
2018-Feb-12 08:28N 63°06' E 007°46'0 0.0
2018-Feb-12 07:58N 63°06' E 007°46'0 0.0
2018-Feb-12 07:28N 63°06' E 007°46'0 0.0
2018-Feb-12 06:58N 63°06' E 007°46'0 0.0
2018-Feb-12 06:28N 63°06' E 007°46'0 0.0
2018-Feb-12 05:58N 63°06' E 007°46'0 0.0
2018-Feb-12 05:28N 63°06' E 007°46'0 0.0
2018-Feb-12 04:58N 63°06' E 007°46'0 0.0
2018-Feb-12 04:28N 63°06' E 007°46'0 0.0
2018-Feb-12 03:58N 63°06' E 007°46'0 0.0
2018-Feb-12 03:28N 63°06' E 007°46'0 0.0
2018-Feb-12 02:58N 63°06' E 007°46'0 0.0
2018-Feb-12 02:28N 63°06' E 007°46'0 0.0
2018-Feb-12 01:58N 63°06' E 007°46'0 0.0
2018-Feb-12 01:28N 63°06' E 007°46'0 0.0
2018-Feb-12 00:55N 63°06' E 007°46'0 0.0
2018-Feb-12 00:28N 63°06' E 007°46'0 0.0
2018-Feb-11 23:58N 63°06' E 007°46'0 0.0
2018-Feb-11 23:28N 63°06' E 007°46'0 0.0
2018-Feb-11 22:58N 63°06' E 007°46'0 0.0
2018-Feb-11 22:28N 63°06' E 007°46'0 0.0
2018-Feb-11 21:58N 63°06' E 007°46'0 0.0
2018-Feb-11 21:28N 63°06' E 007°46'0 0.0
2018-Feb-11 20:58N 63°06' E 007°46'0 0.0
2018-Feb-11 20:28N 63°06' E 007°46'0 0.0
2018-Feb-11 19:58N 63°06' E 007°46'0 0.0
2018-Feb-11 19:28N 63°06' E 007°46'0 0.0
2018-Feb-11 18:58N 63°06' E 007°46'0 0.0
2018-Feb-11 18:28N 63°06' E 007°46'0 0.0
2018-Feb-11 17:58N 63°06' E 007°46'0 0.0
2018-Feb-11 17:28N 63°06' E 007°46'0 0.0
2018-Feb-11 16:58N 63°06' E 007°46'0 0.0
2018-Feb-11 16:28N 63°06' E 007°46'0 0.0
2018-Feb-11 15:58N 63°06' E 007°46'0 0.0
2018-Feb-11 15:28N 63°06' E 007°46'0 0.0
2018-Feb-11 14:58N 63°06' E 007°46'0 0.3
2018-Feb-11 14:30N 63°06' E 007°46'3 5.8
2018-Feb-11 14:00N 63°07' E 007°40'5 9.3
2018-Feb-11 13:30N 63°11' E 007°47'5 9.3
2018-Feb-11 13:00N 63°13' E 007°55'5 9.4
2018-Feb-11 12:30N 63°16' E 008°05'5 9.4
2018-Feb-11 12:00N 63°18' E 008°14'4 8.6
2018-Feb-11 11:29N 63°22' E 008°18'5 9.6
2018-Feb-11 11:00N 63°26' E 008°14'5 9.3
2018-Feb-11 10:30N 63°31' E 008°11'5 9.8
2018-Feb-11 10:00N 63°36' E 008°09'4 7.8
2018-Feb-11 09:30N 63°39' E 008°08'0 0.2
2018-Feb-11 09:00N 63°39' E 008°08'4 8.8
2018-Feb-11 08:30N 63°44' E 008°06'5 9.3
2018-Feb-11 08:00N 63°48' E 008°05'4 8.5
2018-Feb-11 07:29N 63°52' E 008°08'4 8.7
2018-Feb-11 07:00N 63°56' E 008°14'4 7.5
2018-Feb-11 06:30N 63°58' E 008°20'  
Track history (hours):
 
Tides and Currents Weather Stations Pressure Air Temp Water Temp Dewpoint Dewpoint Depression Visibility Wind Speed Wind Dir Waves Ship Positions

TrOMS Arcturus

Last reported at 2018-Feb-19 17:59 UTC. Time now 2018-Feb-19 18:19 UTC.
Position N 63°06' E 007°47'.

Length 95 m; draft 5.3 m.

Type: Cargo ship. MMSI: 257131000.

Date/timePositionNaut miles runAvg speedWind from/ knotsBaromVisibWave heightAir tempDewpointWater temp
2018-Feb-19 17:59N 63°06' E 007°47'0 0.0
2018-Feb-19 17:29N 63°06' E 007°47'0 0.0
2018-Feb-19 16:59N 63°06' E 007°47'0 0.0
2018-Feb-19 16:29N 63°06' E 007°47'0 0.0
2018-Feb-19 15:59N 63°06' E 007°47'0 0.3
2018-Feb-19 15:30N 63°06' E 007°47'3 5.3
2018-Feb-19 15:00N 63°06' E 007°41'3 6.0
2018-Feb-19 14:30N 63°09' E 007°43'0 0.3
2018-Feb-19 14:00N 63°09' E 007°44'0 0.2
2018-Feb-19 13:30N 63°09' E 007°43'0 0.1
2018-Feb-19 13:00N 63°09' E 007°43'0 0.1
2018-Feb-19 12:30N 63°09' E 007°43'0 0.1
2018-Feb-19 12:00N 63°09' E 007°43'3 6.0
2018-Feb-19 11:30N 63°12' E 007°46'4 7.4
2018-Feb-19 11:00N 63°14' E 007°40'4 7.5
2018-Feb-19 10:30N 63°17' E 007°35'4 8.3
2018-Feb-19 10:00N 63°21' E 007°34'4 8.2
2018-Feb-19 09:30N 63°25' E 007°34'4 8.1
2018-Feb-19 09:00N 63°29' E 007°34'4 8.1
2018-Feb-19 08:30N 63°33' E 007°34'4 7.6
2018-Feb-19 08:00N 63°37' E 007°33'4 8.6
2018-Feb-19 07:30N 63°42' E 007°32'1 1.4
2018-Feb-19 07:00N 63°42' E 007°33'6 0.2
2018-Feb-17 14:37N 63°48' E 007°40'110.5
2018-Feb-17 14:30N 63°46' E 007°40'510.8
2018-Feb-17 14:00N 63°41' E 007°40'510.5
2018-Feb-17 13:30N 63°36' E 007°39'510.9
2018-Feb-17 13:00N 63°30' E 007°38'611.3
2018-Feb-17 12:30N 63°25' E 007°38'611.3
2018-Feb-17 12:00N 63°19' E 007°37'5 9.5
2018-Feb-17 11:30N 63°15' E 007°41'4 8.5
2018-Feb-17 11:00N 63°10' E 007°44'5 9.1
2018-Feb-17 10:30N 63°06' E 007°43'2 4.2
2018-Feb-17 10:00N 63°06' E 007°47'0 0.0
2018-Feb-17 09:29N 63°06' E 007°47'0 0.0
2018-Feb-17 08:59N 63°06' E 007°47'0 0.0
2018-Feb-17 08:29N 63°06' E 007°47'0 0.0
2018-Feb-17 07:59N 63°06' E 007°47'0 0.0
2018-Feb-17 07:29N 63°06' E 007°47'0 0.0
2018-Feb-17 06:59N 63°06' E 007°47'0 0.0
2018-Feb-17 06:29N 63°06' E 007°47'0 0.0
2018-Feb-17 05:59N 63°06' E 007°47'0 0.0
2018-Feb-17 05:29N 63°06' E 007°47'0 0.0
2018-Feb-17 04:59N 63°06' E 007°47'0 0.0
2018-Feb-17 04:29N 63°06' E 007°47'0 0.0
2018-Feb-17 03:59N 63°06' E 007°47'0 0.0
2018-Feb-17 03:29N 63°06' E 007°47'0 0.0
2018-Feb-17 02:59N 63°06' E 007°47'0 0.0
2018-Feb-17 02:29N 63°06' E 007°47'0 0.0
2018-Feb-17 01:59N 63°06' E 007°47'0 0.0
2018-Feb-17 01:29N 63°06' E 007°47'0 0.0
2018-Feb-17 00:59N 63°06' E 007°47'0 0.0
2018-Feb-17 00:29N 63°06' E 007°47'0 0.0
2018-Feb-16 23:59N 63°06' E 007°47'0 0.0
2018-Feb-16 23:29N 63°06' E 007°47'0 0.0
2018-Feb-16 22:59N 63°06' E 007°47'0 0.0
2018-Feb-16 22:29N 63°06' E 007°47'0 0.0
2018-Feb-16 21:59N 63°06' E 007°47'0 0.0
2018-Feb-16 21:29N 63°06' E 007°47'0 0.0
2018-Feb-16 20:59N 63°06' E 007°47'0 0.0
2018-Feb-16 20:29N 63°06' E 007°47'0 0.0
2018-Feb-16 19:59N 63°06' E 007°47'0 0.1
2018-Feb-16 19:30N 63°06' E 007°47'0 0.6
2018-Feb-16 19:01N 63°06' E 007°46'0 0.4
2018-Feb-16 18:28N 63°06' E 007°46'0 0.0
2018-Feb-16 17:58N 63°06' E 007°46'0 0.0
2018-Feb-16 17:28N 63°06' E 007°46'0 0.0
2018-Feb-16 16:58N 63°06' E 007°46'0 0.0
2018-Feb-16 16:28N 63°06' E 007°46'0 0.0
2018-Feb-16 15:58N 63°06' E 007°46'0 0.0
2018-Feb-16 15:31N 63°06' E 007°46'0 0.0
2018-Feb-16 15:01N 63°06' E 007°46'0 0.0
2018-Feb-16 14:31N 63°06' E 007°46'0 0.0
2018-Feb-16 13:58N 63°06' E 007°46'0 0.0
2018-Feb-16 13:28N 63°06' E 007°46'0 0.0
2018-Feb-16 12:58N 63°06' E 007°46'0 0.0
2018-Feb-16 12:28N 63°06' E 007°46'0 0.0
2018-Feb-16 11:58N 63°06' E 007°46'0 0.0
2018-Feb-16 11:28N 63°06' E 007°46'0 0.0
2018-Feb-16 10:58N 63°06' E 007°46'0 0.0
2018-Feb-16 10:28N 63°06' E 007°46'0 0.0
2018-Feb-16 10:01N 63°06' E 007°46'0 0.0
2018-Feb-16 09:28N 63°06' E 007°46'0 0.0
2018-Feb-16 09:00N 63°06' E 007°46'0 0.0
2018-Feb-16 08:28N 63°06' E 007°46'0 0.0
2018-Feb-16 08:00N 63°06' E 007°46'0 0.0
2018-Feb-16 07:31N 63°06' E 007°46'0 0.0
2018-Feb-16 07:01N 63°06' E 007°46'0 0.0
2018-Feb-16 06:31N 63°06' E 007°46'0 0.0
2018-Feb-16 06:01N 63°06' E 007°46'0 0.0
2018-Feb-16 05:31N 63°06' E 007°46'0 0.0
2018-Feb-16 05:00N 63°06' E 007°46'0 0.0
2018-Feb-16 04:27N 63°06' E 007°46'0 0.0
2018-Feb-16 03:58N 63°06' E 007°46'0 0.0
2018-Feb-16 03:28N 63°06' E 007°46'0 0.0
2018-Feb-16 03:01N 63°06' E 007°46'0 0.0
2018-Feb-16 02:28N 63°06' E 007°46'0 0.0
2018-Feb-16 02:01N 63°06' E 007°46'0 0.0
2018-Feb-16 01:31N 63°06' E 007°46'0 0.0
2018-Feb-16 00:57N 63°06' E 007°46'0 0.0
2018-Feb-16 00:31N 63°06' E 007°46'0 0.0
2018-Feb-16 00:00N 63°06' E 007°46'0 0.0
2018-Feb-15 23:30N 63°06' E 007°46'0 0.0
2018-Feb-15 23:00N 63°06' E 007°46'0 0.0
2018-Feb-15 22:31N 63°06' E 007°46'0 0.0
2018-Feb-15 22:00N 63°06' E 007°46'0 0.0
2018-Feb-15 21:27N 63°06' E 007°46'0 0.0
2018-Feb-15 21:00N 63°06' E 007°46'0 0.0
2018-Feb-15 20:31N 63°06' E 007°46'0 0.0
2018-Feb-15 20:00N 63°06' E 007°46'0 0.0
2018-Feb-15 19:30N 63°06' E 007°46'0 0.0
2018-Feb-15 19:00N 63°06' E 007°46'0 0.0
2018-Feb-15 18:30N 63°06' E 007°46'0 0.0
2018-Feb-15 18:00N 63°06' E 007°46'0 0.0
2018-Feb-15 17:30N 63°06' E 007°46'0 0.3
2018-Feb-15 17:01N 63°06' E 007°46'1 1.3
2018-Feb-15 16:30N 63°06' E 007°48'0 0.0
2018-Feb-15 16:00N 63°06' E 007°48'0 0.0
2018-Feb-15 15:30N 63°06' E 007°48'0 0.0
2018-Feb-15 15:00N 63°06' E 007°48'0 0.0
2018-Feb-15 14:30N 63°06' E 007°48'0 0.0
2018-Feb-15 14:00N 63°06' E 007°48'0 0.0
2018-Feb-15 13:30N 63°06' E 007°48'0 0.1
2018-Feb-15 13:00N 63°06' E 007°48'0 0.5
2018-Feb-15 12:30N 63°06' E 007°47'0 0.0
2018-Feb-15 12:00N 63°06' E 007°47'0 0.0
2018-Feb-15 11:30N 63°06' E 007°47'0 0.0
2018-Feb-15 11:00N 63°06' E 007°47'0 0.0
2018-Feb-15 10:30N 63°06' E 007°47'0 0.0
2018-Feb-15 10:00N 63°06' E 007°47'0 0.0
2018-Feb-15 09:30N 63°06' E 007°47'0 0.0
2018-Feb-15 09:00N 63°06' E 007°47'0 0.0
2018-Feb-15 08:30N 63°06' E 007°47'0 0.0
2018-Feb-15 08:00N 63°06' E 007°47'0 0.0
2018-Feb-15 07:30N 63°06' E 007°47'0 0.0
2018-Feb-15 07:00N 63°06' E 007°47'2 3.6
2018-Feb-15 06:30N 63°06' E 007°43'4 7.1
2018-Feb-15 06:00N 63°09' E 007°42'4 7.7
2018-Feb-15 05:30N 63°13' E 007°44'5 9.1
2018-Feb-15 05:00N 63°15' E 007°36'4 8.3
2018-Feb-15 04:30N 63°19' E 007°35'4 8.0
2018-Feb-15 04:00N 63°23' E 007°35'4 8.0
2018-Feb-15 03:30N 63°27' E 007°36'4 8.3
2018-Feb-15 03:00N 63°32' E 007°37'4 8.4
2018-Feb-15 02:30N 63°36' E 007°38'4 8.3
2018-Feb-15 02:00N 63°40' E 007°39'4 8.3
2018-Feb-15 01:30N 63°44' E 007°41'4 8.4
2018-Feb-15 01:00N 63°48' E 007°42'11 0.4
2018-Feb-13 23:52N 63°40' E 007°26'411.1
2018-Feb-13 23:30N 63°36' E 007°29'511.0
2018-Feb-13 23:00N 63°30' E 007°31'611.0
2018-Feb-13 22:30N 63°25' E 007°34'511.1
2018-Feb-13 22:00N 63°19' E 007°36'510.1
2018-Feb-13 21:30N 63°15' E 007°41'4 8.5
2018-Feb-13 21:00N 63°11' E 007°44'5 9.6
2018-Feb-13 20:30N 63°06' E 007°42'2 3.9
2018-Feb-13 20:00N 63°06' E 007°46'0 0.0
2018-Feb-13 19:28N 63°06' E 007°46'0 0.0
2018-Feb-13 18:58N 63°06' E 007°46'0 0.0
2018-Feb-13 18:28N 63°06' E 007°46'0 0.0
2018-Feb-13 17:58N 63°06' E 007°46'0 0.0
2018-Feb-13 17:28N 63°06' E 007°46'0 0.0
2018-Feb-13 16:58N 63°06' E 007°46'0 0.0
2018-Feb-13 16:28N 63°06' E 007°46'0 0.0
2018-Feb-13 15:58N 63°06' E 007°46'0 0.0
2018-Feb-13 15:28N 63°06' E 007°46'0 0.0
2018-Feb-13 14:58N 63°06' E 007°46'0 0.0
2018-Feb-13 14:28N 63°06' E 007°46'0 0.0
2018-Feb-13 13:58N 63°06' E 007°46'0 0.0
2018-Feb-13 13:28N 63°06' E 007°46'0 0.0
2018-Feb-13 12:58N 63°06' E 007°46'0 0.0
2018-Feb-13 12:28N 63°06' E 007°46'0 0.0
2018-Feb-13 11:58N 63°06' E 007°46'0 0.0
2018-Feb-13 11:28N 63°06' E 007°46'0 0.0
2018-Feb-13 10:58N 63°06' E 007°46'0 0.0
2018-Feb-13 10:28N 63°06' E 007°46'0 0.0
2018-Feb-13 09:58N 63°06' E 007°46'0 0.0
2018-Feb-13 09:28N 63°06' E 007°46'0 0.0
2018-Feb-13 08:58N 63°06' E 007°46'0 0.0
2018-Feb-13 08:28N 63°06' E 007°46'0 0.0
2018-Feb-13 07:58N 63°06' E 007°46'0 0.0
2018-Feb-13 07:28N 63°06' E 007°46'0 0.0
2018-Feb-13 06:58N 63°06' E 007°46'0 0.0
2018-Feb-13 06:28N 63°06' E 007°46'0 0.0
2018-Feb-13 05:58N 63°06' E 007°46'0 0.0
2018-Feb-13 05:28N 63°06' E 007°46'0 0.0
2018-Feb-13 04:58N 63°06' E 007°46'0 0.0
2018-Feb-13 04:28N 63°06' E 007°46'0 0.0
2018-Feb-13 03:58N 63°06' E 007°46'0 0.0
2018-Feb-13 03:28N 63°06' E 007°46'0 0.0
2018-Feb-13 02:58N 63°06' E 007°46'0 0.0
2018-Feb-13 02:25N 63°06' E 007°46'0 0.0
2018-Feb-13 01:58N 63°06' E 007°46'0 0.0
2018-Feb-13 01:28N 63°06' E 007°46'0 0.0
2018-Feb-13 00:58N 63°06' E 007°46'0 0.0
2018-Feb-13 00:28N 63°06' E 007°46'0 0.0
2018-Feb-12 23:58N 63°06' E 007°46'0 0.0
2018-Feb-12 23:28N 63°06' E 007°46'0 0.0
2018-Feb-12 22:58N 63°06' E 007°46'0 0.0
2018-Feb-12 22:28N 63°06' E 007°46'0 0.0
2018-Feb-12 21:58N 63°06' E 007°46'0 0.0
2018-Feb-12 21:28N 63°06' E 007°46'0 0.0
2018-Feb-12 20:58N 63°06' E 007°46'0 0.0
2018-Feb-12 20:28N 63°06' E 007°46'0 0.0
2018-Feb-12 19:58N 63°06' E 007°46'0 0.0
2018-Feb-12 19:28N 63°06' E 007°46'0 0.0
2018-Feb-12 18:58N 63°06' E 007°46'0 0.0
2018-Feb-12 18:28N 63°06' E 007°46'0 0.0
2018-Feb-12 17:58N 63°06' E 007°46'0 0.0
2018-Feb-12 17:28N 63°06' E 007°46'0 0.0
2018-Feb-12 16:58N 63°06' E 007°46'0 0.0
2018-Feb-12 16:28N 63°06' E 007°46'0 0.0
2018-Feb-12 15:58N 63°06' E 007°46'0 0.0
2018-Feb-12 15:28N 63°06' E 007°46'0 0.0
2018-Feb-12 14:58N 63°06' E 007°46'0 0.0
2018-Feb-12 14:28N 63°06' E 007°46'0 0.0
2018-Feb-12 13:58N 63°06' E 007°46'0 0.0
2018-Feb-12 13:28N 63°06' E 007°46'0 0.0
2018-Feb-12 12:58N 63°06' E 007°46'0 0.0
2018-Feb-12 12:28N 63°06' E 007°46'0 0.0
2018-Feb-12 11:58N 63°06' E 007°46'0 0.0
2018-Feb-12 11:28N 63°06' E 007°46'0 0.0
2018-Feb-12 10:58N 63°06' E 007°46'0 0.0
2018-Feb-12 10:28N 63°06' E 007°46'0 0.0
2018-Feb-12 09:58N 63°06' E 007°46'0 0.0
2018-Feb-12 09:28N 63°06' E 007°46'0 0.0
2018-Feb-12 08:58N 63°06' E 007°46'0 0.0
2018-Feb-12 08:28N 63°06' E 007°46'0 0.0
2018-Feb-12 07:58N 63°06' E 007°46'0 0.0
2018-Feb-12 07:28N 63°06' E 007°46'0 0.0
2018-Feb-12 06:58N 63°06' E 007°46'0 0.0
2018-Feb-12 06:28N 63°06' E 007°46'0 0.0
2018-Feb-12 05:58N 63°06' E 007°46'0 0.0
2018-Feb-12 05:28N 63°06' E 007°46'0 0.0
2018-Feb-12 04:58N 63°06' E 007°46'0 0.0
2018-Feb-12 04:28N 63°06' E 007°46'0 0.0
2018-Feb-12 03:58N 63°06' E 007°46'0 0.0
2018-Feb-12 03:28N 63°06' E 007°46'0 0.0
2018-Feb-12 02:58N 63°06' E 007°46'0 0.0
2018-Feb-12 02:28N 63°06' E 007°46'0 0.0
2018-Feb-12 01:58N 63°06' E 007°46'0 0.0
2018-Feb-12 01:28N 63°06' E 007°46'0 0.0
2018-Feb-12 00:55N 63°06' E 007°46'0 0.0
2018-Feb-12 00:28N 63°06' E 007°46'0 0.0
2018-Feb-11 23:58N 63°06' E 007°46'0 0.0
2018-Feb-11 23:28N 63°06' E 007°46'0 0.0
2018-Feb-11 22:58N 63°06' E 007°46'0 0.0
2018-Feb-11 22:28N 63°06' E 007°46'0 0.0
2018-Feb-11 21:58N 63°06' E 007°46'0 0.0
2018-Feb-11 21:28N 63°06' E 007°46'0 0.0
2018-Feb-11 20:58N 63°06' E 007°46'0 0.0
2018-Feb-11 20:28N 63°06' E 007°46'0 0.0
2018-Feb-11 19:58N 63°06' E 007°46'0 0.0
2018-Feb-11 19:28N 63°06' E 007°46'0 0.0
2018-Feb-11 18:58N 63°06' E 007°46'0 0.0
2018-Feb-11 18:28N 63°06' E 007°46'0 0.0
2018-Feb-11 17:58N 63°06' E 007°46'0 0.0
2018-Feb-11 17:28N 63°06' E 007°46'0 0.0
2018-Feb-11 16:58N 63°06' E 007°46'0 0.0
2018-Feb-11 16:28N 63°06' E 007°46'0 0.0
2018-Feb-11 15:58N 63°06' E 007°46'0 0.0
2018-Feb-11 15:28N 63°06' E 007°46'0 0.0
2018-Feb-11 14:58N 63°06' E 007°46'0 0.3
2018-Feb-11 14:30N 63°06' E 007°46'3 5.8
2018-Feb-11 14:00N 63°07' E 007°40'5 9.3
2018-Feb-11 13:30N 63°11' E 007°47'5 9.3
2018-Feb-11 13:00N 63°13' E 007°55'5 9.4
2018-Feb-11 12:30N 63°16' E 008°05'5 9.4
2018-Feb-11 12:00N 63°18' E 008°14'4 8.6
2018-Feb-11 11:29N 63°22' E 008°18'5 9.6
2018-Feb-11 11:00N 63°26' E 008°14'5 9.3
2018-Feb-11 10:30N 63°31' E 008°11'5 9.8
2018-Feb-11 10:00N 63°36' E 008°09'4 7.8
2018-Feb-11 09:30N 63°39' E 008°08'0 0.2
2018-Feb-11 09:00N 63°39' E 008°08'4 8.8
2018-Feb-11 08:30N 63°44' E 008°06'5 9.3
2018-Feb-11 08:00N 63°48' E 008°05'4 8.5
2018-Feb-11 07:29N 63°52' E 008°08'4 8.7
2018-Feb-11 07:00N 63°56' E 008°14'4 7.5
2018-Feb-11 06:30N 63°58' E 008°20'  

Dump ship's entire track history